.
WxDataArchive / Data Records for 2011-07-19
2011-07-18 July 2011 2011-07-20

Data Records for Tuesday, 19 July 2011

Time	Temp	Chill	HIndex	Humid	Dewpt	 Wind 	HiWind	WindDir	Rain 	Barom 
-----	----	-----	------	-----	-----	------	------	-------	-----	----- 
00:00	83.4	83.4	90.7	75	74.6	1	4	270	0.00	29.882 
00:05	83.4	83.4	91.0	76	75.0	1	3	270	0.00	29.882 
00:10	83.2	83.2	90.6	76	74.8	1	4	270	0.00	29.882 
00:15	83.2	83.2	90.6	76	74.8	1	3	270	0.00	29.878 
00:20	83.0	83.0	90.1	76	74.6	1	4	270	0.00	29.878 
00:25	83.0	83.0	90.1	76	74.6	1	3	270	0.00	29.878 
00:30	82.8	82.8	89.6	76	74.4	1	3	270	0.00	29.852 
00:35	82.6	82.6	89.2	76	74.2	0	3	270	0.00	29.852 
00:40	82.6	82.6	89.2	76	74.2	1	4	270	0.00	29.852 
00:45	82.6	82.6	89.2	76	74.2	1	3	270	0.00	29.864 
00:50	82.6	82.6	89.2	76	74.2	1	4	270	0.00	29.864 
00:55	82.6	82.6	89.2	76	74.2	2	4	270	0.00	29.864 
01:00	82.6	82.6	89.2	76	74.2	1	6	270	0.00	29.872 
01:05	82.6	82.6	89.2	76	74.2	1	5	270	0.00	29.872 
01:10	82.4	82.4	88.7	76	74.1	2	5	270	0.00	29.872 
01:15	82.4	82.4	88.7	76	74.1	1	5	248	0.00	29.863 
01:20	82.4	82.4	89.0	77	74.4	1	4	248	0.00	29.863 
01:25	82.2	82.2	88.5	77	74.2	1	5	270	0.00	29.863 
01:30	82.2	82.2	88.5	77	74.2	1	4	270	0.00	29.849 
01:35	82.2	82.2	88.8	78	74.6	2	5	270	0.00	29.849 
01:40	82.2	82.2	88.8	78	74.6	2	4	270	0.00	29.849 
01:45	82.0	82.0	88.3	78	74.4	1	3	270	0.00	29.861 
01:50	82.0	82.0	88.3	78	74.4	2	6	270	0.00	29.861 
01:55	82.2	82.2	88.8	78	74.6	1	5	270	0.00	29.861 
02:00	82.2	82.2	89.0	79	75.0	2	5	270	0.00	29.865 
02:05	82.2	82.2	89.0	79	75.0	1	5	270	0.00	29.865 
02:10	82.2	82.2	89.0	79	75.0	1	3	270	0.00	29.865 
02:15	82.0	82.0	88.5	79	74.8	1	5	270	0.00	29.850 
02:20	82.0	82.0	88.5	79	74.8	1	4	270	0.00	29.850 
02:25	82.0	82.0	88.5	79	74.8	1	3	270	0.00	29.850 
02:30	82.0	82.0	88.8	80	75.2	1	5	270	0.00	29.842 
02:35	81.8	81.8	88.3	80	75.0	1	5	270	0.00	29.842 
02:40	81.6	81.6	88.1	81	75.2	1	3	292	0.00	29.842 
02:45	81.6	81.6	88.1	81	75.2	1	3	292	0.00	29.846 
02:50	81.4	81.4	87.8	82	75.4	2	4	292	0.00	29.846 
02:55	81.4	81.4	87.8	82	75.4	1	4	292	0.00	29.846 
03:00	81.4	81.4	87.8	82	75.4	1	3	292	0.00	29.849 
03:05	81.4	81.4	87.8	82	75.4	2	4	270	0.00	29.849 
03:10	81.4	81.4	88.0	83	75.7	2	4	270	0.00	29.849 
03:15	81.1	81.1	87.5	84	75.8	2	3	292	0.00	29.850 
03:20	80.9	80.9	87.2	85	76.0	1	3	292	0.00	29.850 
03:25	80.7	80.7	86.7	85	75.8	0	3	292	0.00	29.850 
03:30	80.3	80.3	85.8	86	75.7	0	2	292	0.00	29.839 
03:35	80.3	80.3	85.8	86	75.7	0	2	292	0.00	29.839 
03:40	80.1	80.1	85.5	87	75.9	0	2	292	0.00	29.839 
03:45	79.9	79.9	85.0	87	75.7	0	2	292	0.00	29.844 
03:50	79.9	79.9	85.0	87	75.7	0	0	---	0.00	29.844 
03:55	79.8	79.8	84.8	88	75.9	0	2	292	0.00	29.844 
04:00	79.8	79.8	84.8	88	75.9	0	1	292	0.00	29.830 
04:05	79.6	79.6	84.3	88	75.7	0	0	---	0.00	29.830 
04:10	79.6	79.6	84.3	88	75.7	0	1	292	0.00	29.830 
04:15	79.4	79.4	83.8	88	75.5	0	2	292	0.00	29.818 
04:20	79.4	79.4	83.9	89	75.9	0	1	292	0.00	29.818 
04:25	79.4	79.4	83.9	89	75.9	0	1	292	0.00	29.818 
04:30	79.4	79.4	83.9	89	75.9	0	1	292	0.00	29.818 
04:35	79.2	79.2	83.4	89	75.7	0	2	292	0.00	29.818 
04:40	79.2	79.2	83.4	89	75.7	0	1	292	0.00	29.818 
04:45	79.2	79.2	83.4	89	75.7	0	2	292	0.00	29.819 
04:50	79.2	79.2	83.4	89	75.7	1	3	292	0.00	29.819 
04:55	79.2	79.2	83.4	89	75.7	1	4	292	0.00	29.819 
05:00	79.2	79.2	83.3	88	75.3	1	3	292	0.00	29.820 
05:05	79.0	79.0	82.8	88	75.1	1	3	292	0.00	29.820 
05:10	78.8	78.8	82.3	87	74.6	1	3	292	0.00	29.820 
05:15	78.8	78.8	82.2	86	74.2	2	4	292	0.00	29.822 
05:20	78.8	78.8	82.1	85	73.9	2	4	292	0.00	29.822 
05:25	78.8	78.8	82.1	84	73.5	2	5	270	0.00	29.822 
05:30	78.6	78.6	81.6	84	73.3	1	3	270	0.00	29.830 
05:35	78.5	78.5	81.4	84	73.2	1	3	270	0.00	29.830 
05:40	78.5	78.5	81.4	84	73.2	0	2	270	0.00	29.830 
05:45	78.3	78.3	81.0	84	73.1	1	3	270	0.00	29.834 
05:50	78.1	78.1	80.6	84	72.9	1	4	270	0.00	29.834 
05:55	77.9	77.9	80.2	84	72.7	1	3	270	0.00	29.834 
06:00	77.9	77.9	80.2	84	72.7	0	2	270	0.00	29.840 
06:05	77.7	77.7	79.8	84	72.5	0	2	270	0.00	29.840 
06:10	77.6	77.6	79.6	84	72.4	0	2	270	0.00	29.840 
06:15	77.4	77.4	79.2	84	72.2	0	1	270	0.00	29.845 
06:20	77.4	77.4	79.2	84	72.2	0	1	270	0.00	29.845 
06:25	77.2	77.2	78.8	84	72.0	0	1	270	0.00	29.845 
06:30	77.0	77.0	78.4	84	71.8	0	1	270	0.00	29.844 
06:35	76.8	76.8	78.0	85	71.9	0	2	270	0.00	29.844 
06:40	76.8	76.8	78.0	85	71.9	0	1	270	0.00	29.844 
06:45	76.7	76.7	77.8	85	71.8	0	1	270	0.00	29.849 
06:50	76.7	76.7	77.8	85	71.8	0	0	---	0.00	29.849 
06:55	76.7	76.7	77.8	85	71.8	0	0	---	0.00	29.849 
07:00	76.7	76.7	77.8	85	71.8	0	1	270	0.00	29.851 
07:05	76.7	76.7	77.8	85	71.8	0	1	270	0.00	29.851 
07:10	76.7	76.7	77.8	85	71.8	0	1	270	0.00	29.851 
07:15	76.7	76.7	77.8	85	71.8	0	1	270	0.00	29.850 
07:20	76.8	76.8	78.0	85	71.9	0	1	270	0.00	29.850 
07:25	76.8	76.8	78.0	85	71.9	0	1	270	0.00	29.850 
07:30	77.0	77.0	78.4	85	72.1	0	1	270	0.00	29.850 
07:35	77.2	77.2	78.8	85	72.3	0	1	270	0.00	29.850 
07:40	77.2	77.2	78.8	85	72.3	0	1	270	0.00	29.850 
07:45	77.4	77.4	79.2	85	72.5	0	2	270	0.00	29.847 
07:50	77.6	77.6	79.6	85	72.7	0	2	0	0.00	29.847 
07:55	77.7	77.7	79.8	85	72.8	0	3	0	0.00	29.847 
08:00	78.1	78.1	80.6	85	73.2	0	1	0	0.00	29.851 
08:05	78.1	78.1	80.6	84	72.9	0	1	0	0.00	29.851 
08:10	78.5	78.5	81.4	84	73.2	0	2	0	0.00	29.851 
08:15	78.8	78.8	82.1	84	73.5	0	1	0	0.00	29.855 
08:20	79.2	79.2	82.9	84	73.9	1	2	315	0.00	29.855 
08:25	79.4	79.4	83.4	84	74.1	1	2	315	0.00	29.855 
08:30	79.8	79.8	84.2	83	74.2	0	2	315	0.00	29.851 
08:35	80.1	80.1	84.9	83	74.5	0	1	202	0.00	29.851 
08:40	80.5	80.5	85.8	83	74.8	1	3	225	0.00	29.851 
08:45	81.1	81.1	87.1	82	75.1	0	1	225	0.00	29.852 
08:50	81.4	81.4	87.6	81	75.0	0	2	225	0.00	29.852 
08:55	81.6	81.6	87.8	80	74.8	0	2	225	0.00	29.852 
09:00	81.6	81.6	87.8	80	74.8	0	2	225	0.00	29.852 
09:05	82.0	82.0	88.8	80	75.2	0	1	225	0.00	29.852 
09:10	82.2	82.2	89.0	79	75.0	0	2	225	0.00	29.852 
09:15	82.2	82.2	89.0	79	75.0	0	2	225	0.00	29.866 
09:20	82.4	82.4	89.8	80	75.6	0	2	225	0.00	29.866 
09:25	82.6	82.6	90.0	79	75.4	0	3	202	0.00	29.866 
09:30	82.6	82.6	90.0	79	75.4	0	1	202	0.00	29.867 
09:35	82.4	82.4	89.5	79	75.2	1	4	202	0.00	29.867 
09:40	82.4	82.4	89.8	80	75.6	0	2	292	0.00	29.867 
09:45	82.6	82.6	90.3	80	75.8	0	2	292	0.00	29.866 
09:50	82.6	82.6	90.0	79	75.4	1	2	292	0.00	29.866 
09:55	82.8	82.8	90.5	79	75.6	2	4	292	0.00	29.866 
10:00	83.2	83.2	91.5	79	76.0	0	2	292	0.00	29.867 
10:05	83.8	83.8	92.4	77	75.8	0	2	315	0.00	29.867 
10:10	84.1	84.1	92.8	76	75.7	1	4	315	0.00	29.867 
10:15	84.3	84.3	93.3	76	75.9	0	2	270	0.00	29.866 
10:20	84.7	84.7	94.3	76	76.3	0	2	270	0.00	29.866 
10:25	85.5	85.5	96.0	75	76.6	0	2	270	0.00	29.866 
10:30	85.9	85.9	95.7	72	75.8	1	3	270	0.00	29.864 
10:35	86.1	86.1	96.7	73	76.4	0	2	338	0.00	29.864 
10:40	86.5	86.5	97.7	73	76.8	0	1	338	0.00	29.864 
10:45	86.5	86.5	96.3	70	75.5	1	3	315	0.00	29.864 
10:50	86.3	86.3	96.3	71	75.8	0	2	315	0.00	29.864 
10:55	86.3	86.3	96.3	71	75.8	0	1	315	0.00	29.864 
11:00	86.3	86.3	96.3	71	75.8	0	3	315	0.00	29.862 
11:05	87.6	87.6	98.6	69	76.1	1	3	112	0.00	29.862 
11:10	88.2	88.2	99.1	67	75.8	0	2	112	0.00	29.862 
11:15	88.6	88.6	100.1	67	76.2	0	2	112	0.00	29.858 
11:20	89.0	89.0	100.0	65	75.7	1	4	112	0.00	29.858 
11:25	89.7	89.7	101.9	65	76.3	1	3	112	0.00	29.858 
11:30	89.7	89.7	100.7	63	75.4	0	3	112	0.00	29.861 
11:35	89.3	89.3	100.2	64	75.5	0	1	112	0.00	29.861 
11:40	88.8	88.8	99.5	65	75.5	0	2	112	0.00	29.861 
11:45	88.8	88.8	99.5	65	75.5	0	2	112	0.00	29.863 
11:50	89.3	89.3	100.2	64	75.5	0	3	112	0.00	29.863 
11:55	89.7	89.7	100.1	62	74.9	0	2	270	0.00	29.863 
12:00	90.1	90.1	101.1	62	75.3	1	3	270	0.00	29.864 
12:05	89.0	89.0	98.9	63	74.7	1	2	270	0.00	29.864 
12:10	88.4	88.4	98.0	64	74.6	0	1	270	0.00	29.864 
12:15	89.0	89.0	98.9	63	74.7	0	1	270	0.00	29.861 
12:20	89.7	89.7	100.1	62	74.9	0	2	270	0.00	29.861 
12:25	89.9	89.9	98.9	59	73.6	1	5	270	0.00	29.861 
12:30	89.3	89.3	98.0	60	73.6	0	2	292	0.00	29.864 
12:35	89.5	89.5	98.0	59	73.2	0	2	292	0.00	29.864 
12:40	90.5	90.5	100.9	60	74.7	0	1	292	0.00	29.864 
12:45	91.6	91.6	101.7	57	74.2	1	3	292	0.00	29.856 
12:50	91.6	91.6	100.5	55	73.1	0	2	292	0.00	29.856 
12:55	91.0	91.0	99.7	56	73.1	0	2	315	0.00	29.856 
13:00	91.0	91.0	99.7	56	73.1	1	2	315	0.00	29.851 
13:05	91.0	91.0	100.3	57	73.6	1	3	315	0.00	29.851 
13:10	90.7	90.7	99.1	56	72.8	1	2	315	0.00	29.851 
13:15	91.2	91.2	100.8	57	73.8	0	2	315	0.00	29.849 
13:20	92.1	92.1	99.9	52	71.9	1	3	112	0.00	29.849 
13:25	92.9	92.9	101.7	52	72.6	1	3	112	0.00	29.849 
13:30	92.5	92.5	101.4	53	72.8	0	1	112	0.00	29.849 
13:35	92.3	92.3	102.2	55	73.7	0	1	112	0.00	29.849 
13:40	93.2	93.2	102.4	52	72.9	1	3	112	0.00	29.849 
13:45	93.8	93.8	103.7	52	73.5	0	3	112	0.00	29.847 
13:50	93.8	93.8	103.7	52	73.5	2	5	112	0.00	29.847 
13:55	93.6	93.6	102.6	51	72.7	0	3	112	0.00	29.847 
14:00	93.2	93.2	101.7	51	72.3	1	3	292	0.00	29.848 
14:05	93.2	93.2	102.4	52	72.9	0	2	315	0.00	29.848 
14:10	93.8	93.8	103.1	51	72.9	1	4	315	0.00	29.848 
14:15	94.5	94.5	103.4	49	72.3	0	2	315	0.00	29.846 
14:20	94.9	94.9	102.3	46	70.8	1	3	45	0.00	29.846 
14:25	94.9	94.9	103.0	47	71.5	1	4	270	0.00	29.846 
14:30	94.7	94.7	102.5	47	71.3	2	5	292	0.00	29.841 
14:35	94.7	94.7	101.3	45	70.0	2	5	270	0.00	29.841 
14:40	94.9	94.9	101.7	45	70.2	1	3	270	0.00	29.841 
14:45	95.4	95.4	103.4	46	71.3	1	5	315	0.00	29.838 
14:50	95.6	95.6	102.5	44	70.2	1	4	270	0.00	29.838 
14:55	95.9	95.9	102.5	43	69.7	1	4	270	0.00	29.838 
15:00	95.9	95.9	100.1	39	66.9	2	4	270	0.00	29.839 
15:05	95.9	95.9	103.2	44	70.4	1	6	292	0.00	29.839 
15:10	96.1	96.1	103.6	44	70.6	1	3	292	0.00	29.839 
15:15	96.1	96.1	103.6	44	70.6	1	6	292	0.00	29.832 
15:20	95.4	95.4	101.5	43	69.3	2	5	270	0.00	29.832 
15:25	94.9	94.9	101.7	45	70.2	0	2	270	0.00	29.832 
15:30	94.9	94.9	101.7	45	70.2	1	4	270	0.00	29.832 
15:35	95.6	95.6	102.5	44	70.2	2	6	270	0.00	29.832 
15:40	95.9	95.9	103.2	44	70.4	2	4	292	0.00	29.832 
15:45	95.9	95.9	103.2	44	70.4	1	4	315	0.00	29.829 
15:50	95.9	95.9	103.8	45	71.1	1	2	0	0.00	29.829 
15:55	95.9	95.9	103.2	44	70.4	2	3	292	0.00	29.829 
16:00	96.1	96.1	104.3	45	71.3	1	3	292	0.00	29.831 
16:05	96.3	96.3	104.0	44	70.8	2	10	270	0.00	29.831 
16:10	96.1	96.1	102.9	43	69.9	1	4	292	0.00	29.831 
16:15	95.9	95.9	103.2	44	70.4	2	5	292	0.00	29.828 
16:20	95.9	95.9	103.8	45	71.1	2	5	270	0.00	29.828 
16:25	95.9	95.9	103.2	44	70.4	2	9	270	0.00	29.828 
16:30	95.1	95.1	102.1	45	70.4	0	2	270	0.00	29.820 
16:35	94.9	94.9	103.0	47	71.5	1	2	270	0.00	29.820 
16:40	95.1	95.1	102.7	46	71.0	2	4	292	0.00	29.820 
16:45	95.1	95.1	102.1	45	70.4	3	7	292	0.00	29.822 
16:50	95.1	95.1	102.1	45	70.4	2	4	292	0.00	29.822 
16:55	94.7	94.7	101.9	46	70.6	1	3	292	0.00	29.822 
17:00	94.9	94.9	101.7	45	70.2	1	4	292	0.00	29.819 
17:05	94.5	94.5	101.5	46	70.5	1	3	315	0.00	29.819 
17:10	94.5	94.5	101.5	46	70.5	1	3	315	0.00	29.819 
17:15	94.7	94.7	101.9	46	70.6	1	4	315	0.00	29.822 
17:20	95.1	95.1	103.4	47	71.6	1	3	315	0.00	29.822 
17:25	94.9	94.9	101.7	45	70.2	2	4	270	0.00	29.822 
17:30	94.5	94.5	101.5	46	70.5	1	4	292	0.00	29.821 
17:35	94.3	94.3	101.7	47	70.9	2	5	292	0.00	29.821 
17:40	94.5	94.5	102.1	47	71.1	3	5	292	0.00	29.821 
17:45	94.7	94.7	102.5	47	71.3	2	4	270	0.00	29.821 
17:50	94.7	94.7	102.5	47	71.3	1	3	270	0.00	29.821 
17:55	94.5	94.5	101.5	46	70.5	2	4	270	0.00	29.821 
18:00	94.5	94.5	102.1	47	71.1	2	5	270	0.00	29.820 
18:05	93.8	93.8	100.6	47	70.5	2	4	292	0.00	29.820 
18:10	93.8	93.8	101.2	48	71.1	1	3	292	0.00	29.820 
18:15	93.8	93.8	101.2	48	71.1	1	4	292	0.00	29.821 
18:20	93.8	93.8	100.6	47	70.5	1	3	315	0.00	29.821 
18:25	93.4	93.4	100.3	48	70.7	1	2	315	0.00	29.821 
18:30	93.4	93.4	100.3	48	70.7	2	5	315	0.00	29.818 
18:35	93.4	93.4	100.3	48	70.7	1	4	270	0.00	29.818 
18:40	93.6	93.6	100.8	48	70.9	1	5	270	0.00	29.818 
18:45	93.6	93.6	100.2	47	70.3	2	5	292	0.00	29.814 
18:50	93.2	93.2	99.9	48	70.5	1	4	292	0.00	29.814 
18:55	93.4	93.4	100.3	48	70.7	0	2	292	0.00	29.814 
19:00	93.4	93.4	99.2	46	69.5	1	2	292	0.00	29.808 
19:05	93.2	93.2	99.9	48	70.5	0	2	292	0.00	29.808 
19:10	92.7	92.7	99.4	49	70.7	1	3	315	0.00	29.808 
19:15	92.1	92.1	99.3	51	71.3	1	3	315	0.00	29.807 
19:20	91.6	91.6	99.4	53	72.0	0	1	270	0.00	29.807 
19:25	91.4	91.4	98.9	53	71.8	1	3	270	0.00	29.807 
19:30	91.4	91.4	97.8	51	70.7	1	4	338	0.00	29.810 
19:35	91.4	91.4	97.8	51	70.7	0	1	338	0.00	29.810 
19:40	91.4	91.4	98.4	52	71.3	0	2	338	0.00	29.810 
19:45	91.2	91.2	97.4	51	70.5	0	1	0	0.00	29.806 
19:50	91.0	91.0	97.0	51	70.3	0	2	0	0.00	29.806 
19:55	91.0	91.0	97.0	51	70.3	0	1	0	0.00	29.806 
20:00	91.0	91.0	97.5	52	70.9	0	1	0	0.00	29.808 
20:05	90.7	90.7	97.4	53	71.2	0	1	0	0.00	29.808 
20:10	90.5	90.5	97.0	53	71.0	0	1	0	0.00	29.808 
20:15	90.5	90.5	97.5	54	71.5	0	1	0	0.00	29.806 
20:20	90.3	90.3	97.6	55	71.9	0	1	0	0.00	29.806 
20:25	90.1	90.1	97.2	55	71.7	0	1	0	0.00	29.806 
20:30	89.9	89.9	96.8	55	71.5	0	2	0	0.00	29.807 
20:35	89.7	89.7	96.4	55	71.3	0	1	0	0.00	29.807 
20:40	89.5	89.5	96.4	56	71.7	0	0	---	0.00	29.807 
20:45	89.0	89.0	95.4	56	71.2	0	0	---	0.00	29.808 
20:50	88.8	88.8	95.4	57	71.6	0	0	---	0.00	29.808 
20:55	88.6	88.6	95.0	57	71.4	0	0	---	0.00	29.808 
21:00	88.2	88.2	94.7	58	71.5	0	0	---	0.00	29.808 
21:05	88.0	88.0	94.3	58	71.3	0	0	---	0.00	29.808 
21:10	87.8	87.8	94.3	59	71.7	0	0	---	0.00	29.808 
21:15	87.6	87.6	93.9	59	71.5	0	0	---	0.00	29.808 
21:20	87.2	87.2	93.5	60	71.6	0	0	---	0.00	29.808 
21:25	87.0	87.0	93.5	61	71.9	0	0	---	0.00	29.808 
21:30	86.7	86.7	92.9	61	71.6	0	0	---	0.00	29.814 
21:35	86.5	86.5	92.8	62	71.9	0	0	---	0.00	29.814 
21:40	86.3	86.3	92.4	62	71.7	0	0	---	0.00	29.814 
21:45	85.9	85.9	92.0	63	71.8	0	0	---	0.00	29.825 
21:50	85.7	85.7	91.6	63	71.6	0	0	---	0.00	29.825 
21:55	85.3	85.3	91.2	64	71.7	0	0	---	0.00	29.825 
22:00	85.1	85.1	91.1	65	72.0	0	0	---	0.00	29.825 
22:05	84.7	84.7	90.3	65	71.6	0	0	---	0.00	29.825 
22:10	84.5	84.5	90.2	66	71.9	0	0	---	0.00	29.825 
22:15	84.3	84.3	90.1	67	72.1	0	0	---	0.00	29.835 
22:20	84.1	84.1	89.7	67	71.9	0	0	---	0.00	29.835 
22:25	84.0	84.0	89.5	67	71.8	0	0	---	0.00	29.835 
22:30	83.8	83.8	89.4	68	72.1	0	0	---	0.00	29.834 
22:35	83.6	83.6	89.0	68	71.9	0	0	---	0.00	29.834 
22:40	83.4	83.4	88.9	69	72.1	0	0	---	0.00	29.834 
22:45	83.2	83.2	88.5	69	71.9	0	0	---	0.00	29.837 
22:50	83.0	83.0	88.4	70	72.2	0	0	---	0.00	29.837 
22:55	82.8	82.8	88.0	70	72.0	0	0	---	0.00	29.837 
23:00	82.8	82.8	88.2	71	72.4	0	0	---	0.00	29.836 
23:05	82.6	82.6	88.1	72	72.6	0	0	---	0.00	29.836 
23:10	82.4	82.4	87.9	73	72.9	0	0	---	0.00	29.836 
23:15	82.0	82.0	87.1	73	72.5	0	0	---	0.00	29.832 
23:20	81.8	81.8	86.9	74	72.7	0	0	---	0.00	29.832 
23:25	81.8	81.8	86.9	74	72.7	0	0	---	0.00	29.832 
23:30	81.6	81.6	86.7	75	72.9	0	0	---	0.00	29.832 
23:35	81.4	81.4	86.3	75	72.7	0	0	---	0.00	29.832 
23:40	81.2	81.2	86.1	76	72.9	0	0	---	0.00	29.832 
23:45	81.1	81.1	86.1	77	73.2	0	0	---	0.00	29.819 
23:50	81.1	81.1	86.1	77	73.2	0	0	---	0.00	29.819 
23:55	80.9	80.9	85.7	77	73.0	0	0	---	0.00	29.819 

CoCoRaHS
IN-AL-39
A2 Web Hosting
Creative Commons License
GoDaddy
search engine by freefind advanced

loaded 2018-11-20 03:03:06 • last modified 2010-11-18 10:43:29
Privacy PolicyDisclaimer
• wx.awcolley.com is powered by PmWiki v.2002016 •
• all content (unless otherwise noted) © 2018 A W Colley